Time;durP1;ratioP1;P1;durP2;ratioP2;P2;SDS_P1;SDS_P2;PMS_P1;PMS_P2;Temp;Humidity;BMP_temperature;BMP_pressure;BME280_temperature;BME280_humidity;BME280_pressure;Samples;Min_cycle;Max_cycle;Signal;HPM_P1;HPM_P2
2022/04/21 09:41:08;;;;;;;2.75;2.55;;;13.20;99.90;;;;;;5103323;27;20619;-68
2022/04/21 09:43:35;;;;;;;2.85;2.75;;;13.40;99.90;;;;;;5070719;28;20172;-68
2022/04/21 09:46:21;;;;;;;2.80;2.60;;;13.50;99.90;;;;;;5070612;28;20164;-68
2022/04/21 09:48:52;;;;;;;2.30;2.20;;;13.60;99.90;;;;;;5070554;28;20539;-68
2022/04/21 09:51:23;;;;;;;2.65;2.45;;;13.70;99.90;;;;;;5070624;28;20302;-68
2022/04/21 09:53:49;;;;;;;2.15;2.05;;;13.90;99.90;;;;;;5070540;28;20176;-69
2022/04/21 09:56:15;;;;;;;9.65;2.70;;;13.80;99.90;;;;;;5069217;28;20704;-68
2022/04/21 09:58:42;;;;;;;5.28;2.65;;;13.80;99.90;;;;;;5070325;28;20512;-69
2022/04/21 10:01:08;;;;;;;2.65;2.45;;;13.90;99.90;;;;;;5070376;28;20161;-68
2022/04/21 10:03:34;;;;;;;4.15;2.33;;;13.90;99.90;;;;;;5070242;28;20252;-69
2022/04/21 10:06:01;;;;;;;3.08;2.78;;;14.00;99.90;;;;;;5070218;28;20195;-68
2022/04/21 10:08:29;;;;;;;3.20;2.85;;;14.10;99.90;;;;;;5070172;28;20223;-68
2022/04/21 10:10:56;;;;;;;2.50;2.38;;;14.10;99.90;;;;;;5070158;28;20171;-68
2022/04/21 10:13:22;;;;;;;2.97;2.58;;;14.10;99.90;;;;;;5070079;28;20225;-69
2022/04/21 10:15:49;;;;;;;3.25;2.67;;;14.00;99.90;;;;;;5070146;28;20248;-69
2022/04/21 10:18:16;;;;;;;3.10;2.72;;;14.00;99.90;;;;;;5068703;28;20172;-68
2022/04/21 10:20:44;;;;;;;6.35;2.90;;;13.90;99.90;;;;;;5069903;28;20651;-68
2022/04/21 10:23:15;;;;;;;2.92;2.70;;;13.80;99.90;;;;;;5069888;28;20164;-68
2022/04/21 10:25:42;;;;;;;5.90;2.85;;;13.80;99.90;;;;;;5069855;28;20176;-68
2022/04/21 10:28:39;;;;;;;3.20;3.00;;;13.70;99.90;;;;;;5069751;28;20165;-69
2022/04/21 10:31:25;;;;;;;5.05;2.90;;;13.80;99.90;;;;;;5068375;28;20221;-68
2022/04/21 10:33:56;;;;;;;3.13;2.80;;;13.80;99.90;;;;;;5068305;28;20180;-68
2022/04/21 10:36:46;;;;;;;3.58;2.75;;;13.90;99.90;;;;;;5068346;28;20203;-69
2022/04/21 10:39:24;;;;;;;3.47;3.20;;;14.00;99.90;;;;;;5069348;28;20303;-69
2022/04/21 10:42:14;;;;;;;4.15;3.28;;;14.10;99.90;;;;;;5069501;28;20656;-68
2022/04/21 10:44:46;;;;;;;3.38;3.08;;;14.20;99.90;;;;;;5069452;28;20177;-68
2022/04/21 10:47:28;;;;;;;3.38;3.03;;;14.20;99.90;;;;;;5069381;28;20230;-68
2022/04/21 10:50:13;;;;;;;3.53;3.22;;;14.20;99.90;;;;;;5069299;28;20171;-68
2022/04/21 10:57:56;;;;;;;3.35;2.95;;;14.40;99.90;;;;;;5055998;28;20172;-69
2022/04/21 11:00:32;;;;;;;3.63;3.33;;;14.60;99.90;;;;;;5055828;28;20192;-68
2022/04/21 11:03:05;;;;;;;4.53;3.03;;;14.80;99.90;;;;;;5055908;28;20178;-69
2022/04/21 11:05:33;;;;;;;6.18;3.10;;;14.90;99.90;;;;;;5055816;28;20226;-69
2022/04/21 11:08:04;;;;;;;3.45;3.15;;;15.00;99.90;;;;;;5054493;28;20626;-68
2022/04/21 11:10:38;;;;;;;4.95;3.80;;;15.20;99.90;;;;;;5055853;28;20169;-69
2022/04/21 11:13:05;;;;;;;4.72;3.10;;;15.40;99.90;;;;;;5055680;28;20172;-69
2022/04/21 11:15:44;;;;;;;3.75;3.10;;;15.60;99.90;;;;;;5055668;28;20176;-69
2022/04/21 11:18:17;;;;;;;4.72;3.13;;;15.70;99.90;;;;;;5055607;28;20180;-69
2022/04/21 11:20:47;;;;;;;2.95;2.85;;;15.70;99.90;;;;;;5054226;28;20295;-69
2022/04/21 11:23:29;;;;;;;3.40;3.10;;;15.70;99.90;;;;;;5055486;28;20165;-69
2022/04/21 11:26:03;;;;;;;4.32;3.20;;;15.60;99.90;;;;;;5055467;28;20516;-69
2022/04/21 11:28:29;;;;;;;3.17;2.97;;;15.70;99.90;;;;;;5055360;28;20160;-69
2022/04/21 11:31:00;;;;;;;4.18;3.72;;;15.50;99.90;;;;;;5055439;28;20191;-69
2022/04/21 11:33:26;;;;;;;6.60;3.60;;;15.50;99.90;;;;;;5055379;28;20168;-69
2022/04/21 11:36:09;;;;;;;4.35;3.70;;;15.30;99.90;;;;;;5053952;28;20193;-68
2022/04/21 11:38:36;;;;;;;5.43;3.60;;;15.20;99.90;;;;;;5055018;28;20173;-69
2022/04/21 11:41:07;;;;;;;3.88;3.55;;;15.10;99.90;;;;;;5055180;28;20165;-69
2022/04/21 11:43:33;;;;;;;6.88;4.32;;;15.20;99.90;;;;;;5055158;28;20193;-68
2022/04/21 11:46:06;;;;;;;4.63;4.22;;;15.30;99.90;;;;;;5055143;28;20170;-68
2022/04/21 11:48:34;;;;;;;4.13;3.83;;;15.20;99.90;;;;;;5055063;28;20192;-69
2022/04/21 11:51:01;;;;;;;3.97;3.08;;;15.30;99.90;;;;;;5055071;28;20169;-69
2022/04/21 11:53:36;;;;;;;5.40;3.60;;;15.40;99.90;;;;;;5054920;28;20177;-69
2022/04/21 11:56:03;;;;;;;3.83;3.63;;;15.60;99.90;;;;;;5054913;28;20222;-69
2022/04/21 11:58:30;;;;;;;4.75;3.83;;;15.80;99.90;;;;;;5055041;28;20623;-69
2022/04/21 12:06:38;;;;;;;4.03;3.72;;;16.40;99.90;;;;;;5055023;28;20188;-69
2022/04/21 12:09:05;;;;;;;6.07;3.85;;;16.50;99.90;;;;;;5054672;28;20169;-69
2022/04/21 12:11:32;;;;;;;4.28;3.90;;;16.40;99.90;;;;;;5054644;28;20169;-69
2022/04/21 12:13:59;;;;;;;6.00;4.32;;;16.40;99.90;;;;;;5054534;28;20506;-69
2022/04/21 12:16:42;;;;;;;4.45;3.67;;;16.30;99.90;;;;;;5054458;28;20720;-69
2022/04/21 12:19:28;;;;;;;4.25;3.88;;;16.40;99.90;;;;;;5053364;28;20561;-69
2022/04/21 12:22:01;;;;;;;6.68;3.97;;;16.40;99.90;;;;;;5054548;28;20168;-69
2022/04/21 12:24:29;;;;;;;4.30;3.90;;;16.50;99.90;;;;;;5054371;28;20172;-69
2022/04/21 12:26:54;;;;;;;3.72;3.53;;;16.50;99.90;;;;;;5054239;28;20167;-69
2022/04/21 12:29:22;;;;;;;4.97;4.60;;;16.60;99.90;;;;;;5054248;28;20247;-69
2022/04/21 12:31:53;;;;;;;4.18;3.80;;;16.60;99.90;;;;;;5054091;28;20180;-69
2022/04/21 12:34:45;;;;;;;8.05;4.00;;;16.40;99.90;;;;;;5054115;28;20216;-69
2022/04/21 12:37:10;;;;;;;4.20;3.83;;;16.00;99.90;;;;;;5053709;28;20211;-69
2022/04/21 12:39:37;;;;;;;4.10;3.80;;;15.80;99.90;;;;;;5053754;28;20220;-69
2022/04/21 12:42:03;;;;;;;4.63;4.32;;;15.60;99.90;;;;;;5053986;28;20161;-69
2022/04/21 12:44:29;;;;;;;4.40;4.00;;;15.50;99.90;;;;;;5053972;28;20173;-68
2022/04/21 12:47:00;;;;;;;5.68;4.75;;;15.50;99.90;;;;;;5052660;28;20165;-68
2022/04/21 12:49:52;;;;;;;4.85;4.55;;;15.50;99.90;;;;;;5054289;28;20519;-68
2022/04/21 12:52:31;;;;;;;4.50;4.05;;;15.70;99.90;;;;;;5053815;28;20719;-68
2022/04/21 12:54:58;;;;;;;5.47;4.32;;;16.00;99.90;;;;;;5053720;28;20180;-68
2022/04/21 12:57:24;;;;;;;4.68;4.38;;;16.30;99.90;;;;;;5052640;28;20219;-68
2022/04/21 12:59:59;;;;;;;4.68;4.28;;;16.70;99.90;;;;;;5053672;28;20275;-68
2022/04/21 13:02:25;;;;;;;4.85;4.50;;;17.00;99.90;;;;;;5052416;28;20177;-68
2022/04/21 13:04:50;;;;;;;5.30;4.38;;;17.30;99.90;;;;;;5053563;28;20218;-68
2022/04/21 13:07:16;;;;;;;5.30;4.88;;;17.20;99.90;;;;;;5053645;28;20192;-68
2022/04/21 13:09:42;;;;;;;5.07;4.55;;;17.30;99.90;;;;;;5053553;28;20172;-68
2022/04/21 13:12:08;;;;;;;6.63;5.07;;;17.40;99.90;;;;;;5052259;28;20169;-68
2022/04/21 13:14:34;;;;;;;5.28;4.82;;;17.50;99.90;;;;;;5053203;28;20169;-68
2022/04/21 13:17:00;;;;;;;6.78;4.18;;;17.50;99.90;;;;;;5053406;28;20527;-68
2022/04/21 13:19:26;;;;;;;5.82;4.80;;;17.60;99.90;;;;;;5053325;28;20207;-68
2022/04/21 13:21:57;;;;;;;4.55;4.25;;;17.80;99.90;;;;;;5053374;28;20183;-68
2022/04/21 13:24:25;;;;;;;6.18;4.53;;;17.90;99.90;;;;;;5053337;28;20649;-68
2022/04/21 13:26:54;;;;;;;7.30;5.15;;;18.10;99.90;;;;;;5053331;28;20222;-68
2022/04/21 13:29:23;;;;;;;5.35;5.00;;;18.20;99.90;;;;;;5051958;28;20200;-68
2022/04/21 13:34:34;;;;;;;4.45;4.15;;;18.40;99.90;;;;;;5053449;28;20207;-69
2022/04/21 13:37:01;;;;;;;5.93;4.57;;;18.40;99.90;;;;;;5053271;28;20250;-69
2022/04/21 13:39:28;;;;;;;9.40;4.75;;;18.40;99.90;;;;;;5052896;28;20682;-69
2022/04/21 13:41:54;;;;;;;5.13;4.40;;;18.40;99.90;;;;;;5053114;28;20177;-69
2022/04/21 13:44:19;;;;;;;5.32;4.68;;;18.40;99.90;;;;;;5053159;28;20161;-69
2022/04/21 13:46:45;;;;;;;6.05;4.50;;;18.50;99.90;;;;;;5053118;28;20195;-69
2022/04/21 13:49:11;;;;;;;4.63;4.32;;;18.40;99.90;;;;;;5053015;28;20169;-69
2022/04/21 13:51:37;;;;;;;4.80;4.40;;;18.40;99.90;;;;;;5053124;28;20250;-69
2022/04/21 13:54:03;;;;;;;5.05;4.38;;;18.40;99.90;;;;;;5053493;28;20173;-69
2022/04/21 13:56:29;;;;;;;5.20;4.70;;;18.60;99.90;;;;;;5053034;28;20173;-69
2022/04/21 13:58:56;;;;;;;6.90;5.47;;;18.70;99.90;;;;;;5053003;28;20227;-69
2022/04/21 14:01:22;;;;;;;4.78;4.47;;;18.60;99.90;;;;;;5052975;28;20169;-69
2022/04/21 14:03:49;;;;;;;5.13;4.63;;;18.60;99.90;;;;;;5052976;28;20173;-69
2022/04/21 14:06:15;;;;;;;6.78;4.75;;;18.70;99.90;;;;;;5052943;28;20175;-69
2022/04/21 14:08:47;;;;;;;7.93;4.30;;;18.60;99.90;;;;;;5052891;28;20165;-69
2022/04/21 14:11:15;;;;;;;4.95;4.47;;;18.50;99.90;;;;;;5052925;28;20199;-69
2022/04/21 14:13:42;;;;;;;6.05;5.38;;;18.70;99.90;;;;;;5052883;28;20203;-69
2022/04/21 14:16:07;;;;;;;6.10;5.15;;;18.50;99.90;;;;;;5053012;28;20173;-69
2022/04/21 14:18:33;;;;;;;4.72;4.43;;;18.40;99.90;;;;;;5052859;28;20173;-69
2022/04/21 14:20:58;;;;;;;7.82;4.85;;;18.60;99.90;;;;;;5052682;28;20292;-69
2022/04/21 14:23:24;;;;;;;6.22;4.55;;;18.60;99.90;;;;;;5052728;28;20161;-69
2022/04/21 14:25:51;;;;;;;7.07;5.65;;;18.50;99.90;;;;;;5053368;28;20222;-69
2022/04/21 14:28:16;;;;;;;5.20;4.72;;;18.50;99.90;;;;;;5056503;28;20164;-69
2022/04/21 14:30:42;;;;;;;6.78;4.90;;;18.70;99.90;;;;;;5056401;28;20175;-69
2022/04/21 14:33:10;;;;;;;5.38;4.95;;;18.90;99.90;;;;;;5056424;28;20180;-69
2022/04/21 14:35:37;;;;;;;5.70;5.00;;;19.00;99.90;;;;;;5055079;28;20188;-69
2022/04/21 14:46:16;;;;;;;5.43;4.93;;;18.00;99.90;;;;;;5056255;28;20230;-69
2022/04/21 14:48:42;;;;;;;5.43;4.93;;;18.00;99.90;;;;;;5056135;28;20184;-69
2022/04/21 14:51:08;;;;;;;5.72;5.22;;;18.30;99.90;;;;;;5056127;28;20211;-69
2022/04/21 14:53:34;;;;;;;5.57;4.65;;;18.30;99.90;;;;;;5054794;28;20196;-69
2022/04/21 14:55:59;;;;;;;5.60;5.10;;;18.50;99.90;;;;;;5056065;28;20169;-69
2022/04/21 14:58:25;;;;;;;7.38;4.60;;;18.80;99.90;;;;;;5056014;28;20188;-69
2022/04/21 15:00:51;;;;;;;6.65;4.63;;;19.10;99.90;;;;;;5055837;28;20200;-69
2022/04/21 15:03:19;;;;;;;5.45;4.80;;;19.10;99.90;;;;;;5055915;28;20165;-69
2022/04/21 15:05:45;;;;;;;4.85;4.45;;;19.10;99.90;;;;;;5055869;28;20161;-69
2022/04/21 15:08:11;;;;;;;5.57;4.03;;;18.90;99.90;;;;;;5055960;28;20707;-69
2022/04/21 15:10:44;;;;;;;7.38;4.88;;;18.70;99.90;;;;;;5055738;28;20165;-69
2022/04/21 15:13:11;;;;;;;6.05;4.30;;;18.40;99.90;;;;;;5055755;28;20222;-69
2022/04/21 15:15:37;;;;;;;6.20;4.85;;;18.10;99.90;;;;;;5054237;28;20542;-69
2022/04/21 15:18:04;;;;;;;4.35;4.05;;;17.80;99.90;;;;;;5055605;28;20176;-69
2022/04/21 15:20:30;;;;;;;5.38;4.35;;;17.60;99.90;;;;;;5055520;28;20204;-69
2022/04/21 15:23:00;;;;;;;6.43;4.82;;;17.30;99.90;;;;;;5055565;28;20218;-69
2022/04/21 15:25:26;;;;;;;5.03;4.25;;;17.20;99.90;;;;;;5055724;28;20164;-69
2022/04/21 15:27:54;;;;;;;4.28;3.90;;;17.10;99.90;;;;;;5055402;28;20167;-69
2022/04/21 15:30:20;;;;;;;4.25;3.25;;;17.00;99.90;;;;;;5055461;28;20173;-69
2022/04/21 15:32:46;;;;;;;4.25;3.80;;;17.00;99.90;;;;;;5055335;28;20168;-69
2022/04/21 15:35:12;;;;;;;3.80;3.50;;;16.90;99.90;;;;;;5055440;28;20192;-69
2022/04/21 15:37:43;;;;;;;4.68;3.42;;;16.90;99.90;;;;;;5055154;28;20170;-69
2022/04/21 15:40:09;;;;;;;6.00;3.63;;;16.90;99.90;;;;;;5055045;28;20224;-69
2022/04/21 15:42:37;;;;;;;4.15;3.88;;;16.80;99.90;;;;;;5055121;28;20180;-69
2022/04/21 15:45:04;;;;;;;4.13;3.83;;;16.70;99.90;;;;;;5055154;28;20161;-69
2022/04/21 15:47:30;;;;;;;5.20;3.40;;;16.60;99.90;;;;;;5055108;28;20226;-69
2022/04/21 15:49:55;;;;;;;7.15;3.45;;;16.60;99.90;;;;;;5055008;28;20177;-69
2022/04/21 15:52:21;;;;;;;4.78;3.20;;;16.60;99.90;;;;;;5053685;28;20179;-69
2022/04/21 16:00:15;;;;;;;4.88;3.35;;;16.30;99.90;;;;;;5054869;28;20254;-69
2022/04/21 16:02:43;;;;;;;6.20;3.65;;;16.30;99.90;;;;;;5054840;28;20161;-69
2022/04/21 16:05:09;;;;;;;3.47;3.20;;;16.20;99.90;;;;;;5053489;28;20173;-69
2022/04/21 16:07:34;;;;;;;2.95;2.75;;;16.10;99.90;;;;;;5054558;28;20169;-69
2022/04/21 16:10:00;;;;;;;2.78;2.58;;;16.00;99.90;;;;;;5054657;28;20248;-69
2022/04/21 16:12:26;;;;;;;4.20;3.42;;;16.00;99.90;;;;;;5054582;28;20550;-69
2022/04/21 16:14:51;;;;;;;4.28;3.03;;;15.80;99.90;;;;;;5053542;28;20177;-69
2022/04/21 16:17:17;;;;;;;4.07;3.38;;;15.70;99.90;;;;;;5054532;28;20165;-69
2022/04/21 16:19:43;;;;;;;5.28;3.42;;;15.80;99.90;;;;;;5054339;28;20276;-69
2022/04/21 16:22:09;;;;;;;3.72;3.50;;;15.80;99.90;;;;;;5054411;28;20506;-69
2022/04/21 16:24:35;;;;;;;4.55;4.22;;;15.80;99.90;;;;;;5054340;28;20172;-69
2022/04/21 16:27:00;;;;;;;4.88;4.25;;;15.80;99.90;;;;;;5053068;28;20165;-69
2022/04/21 16:29:26;;;;;;;4.63;4.00;;;15.80;99.90;;;;;;5054280;28;20180;-69
2022/04/21 16:31:55;;;;;;;4.50;4.13;;;15.70;99.90;;;;;;5052976;28;20177;-69
2022/04/21 16:34:21;;;;;;;5.75;3.83;;;15.60;99.90;;;;;;5054123;28;20185;-69
2022/04/21 16:36:46;;;;;;;3.97;3.67;;;15.60;99.90;;;;;;5053997;28;20649;-69
2022/04/21 16:39:12;;;;;;;4.82;3.13;;;15.50;99.90;;;;;;5053795;28;20290;-69
2022/04/21 16:41:37;;;;;;;8.43;3.45;;;15.40;99.90;;;;;;5052781;28;20169;-69
2022/04/21 16:44:03;;;;;;;5.90;3.15;;;15.50;99.90;;;;;;5053979;28;20251;-69
2022/04/21 16:46:29;;;;;;;4.80;3.20;;;15.40;99.90;;;;;;5054030;28;20169;-69
2022/04/21 16:48:55;;;;;;;5.80;4.07;;;15.20;99.90;;;;;;5052149;28;20183;-69
2022/04/21 16:51:20;;;;;;;13.15;4.35;;;15.30;99.90;;;;;;5053847;28;20173;-69
2022/04/21 16:53:46;;;;;;;3.50;3.22;;;15.10;99.90;;;;;;5053927;28;20185;-69
2022/04/21 16:56:12;;;;;;;6.03;3.47;;;15.10;99.90;;;;;;5053779;28;20169;-69
2022/04/21 16:58:37;;;;;;;5.13;3.95;;;15.30;99.90;;;;;;5052494;28;20184;-69
2022/04/21 17:03:48;;;;;;;6.10;3.38;;;15.70;99.90;;;;;;5053997;28;20229;-69
2022/04/21 17:06:14;;;;;;;5.68;3.88;;;15.60;99.90;;;;;;5053616;28;20165;-69
2022/04/21 17:08:40;;;;;;;5.75;3.65;;;15.50;99.90;;;;;;5053472;28;20213;-69
2022/04/21 17:11:09;;;;;;;3.95;3.30;;;15.40;99.90;;;;;;5053575;28;20172;-69
2022/04/21 17:13:36;;;;;;;4.70;3.78;;;15.30;99.90;;;;;;5052260;28;20177;-69
2022/04/21 17:16:02;;;;;;;7.25;4.38;;;15.20;99.90;;;;;;5053566;28;20591;-69
2022/04/21 17:18:27;;;;;;;5.78;2.95;;;15.10;99.90;;;;;;5053347;28;20173;-69
2022/04/21 17:20:55;;;;;;;11.20;3.80;;;15.00;99.90;;;;;;5053327;28;20207;-69
2022/04/21 17:23:21;;;;;;;6.97;4.57;;;14.90;99.90;;;;;;5053413;28;20161;-69
2022/04/21 17:25:47;;;;;;;3.67;3.33;;;14.80;99.90;;;;;;5053290;28;20631;-69
2022/04/21 17:28:13;;;;;;;5.20;3.83;;;14.60;99.90;;;;;;5053305;28;20227;-69
2022/04/21 17:30:38;;;;;;;4.38;3.63;;;14.60;99.90;;;;;;5053259;28;20177;-69
2022/04/21 17:33:04;;;;;;;3.83;3.63;;;14.60;99.90;;;;;;5053201;28;20173;-69
2022/04/21 17:35:30;;;;;;;3.45;3.15;;;14.50;99.90;;;;;;5053199;28;20271;-69
2022/04/21 17:37:55;;;;;;;4.90;4.15;;;14.50;99.90;;;;;;5053177;28;20175;-69
2022/04/21 17:40:21;;;;;;;6.75;3.22;;;14.50;99.90;;;;;;5052924;28;20224;-68
2022/04/21 17:42:47;;;;;;;3.40;3.20;;;14.40;99.90;;;;;;5053227;28;20176;-69
2022/04/21 17:45:12;;;;;;;3.50;3.30;;;14.20;99.90;;;;;;5051868;28;20169;-69
2022/04/21 17:47:38;;;;;;;4.05;3.65;;;14.20;99.90;;;;;;5053096;28;20173;-69
2022/04/21 17:50:04;;;;;;;6.22;3.65;;;14.10;99.90;;;;;;5053094;28;20173;-69
2022/04/21 17:52:30;;;;;;;3.40;3.20;;;14.10;99.90;;;;;;5053007;28;20192;-69
2022/04/21 17:54:56;;;;;;;5.22;4.07;;;14.10;99.90;;;;;;5053062;28;20529;-69
2022/04/21 17:57:21;;;;;;;4.05;3.67;;;14.00;99.90;;;;;;5052999;28;20525;-68
